sensor_id;sensor_type;location;lat;lon;timestamp;temperature;humidity
13835;DHT22;6988;52.614;13.500;2023-03-24T00:03:12;9.60;99.90
13835;DHT22;6988;52.614;13.500;2023-03-24T00:08:06;9.50;99.90
13835;DHT22;6988;52.614;13.500;2023-03-24T00:12:58;9.50;99.90
13835;DHT22;6988;52.614;13.500;2023-03-24T00:17:50;9.50;99.90
13835;DHT22;6988;52.614;13.500;2023-03-24T00:22:47;9.50;99.90
13835;DHT22;6988;52.614;13.500;2023-03-24T00:27:40;9.50;99.90
13835;DHT22;6988;52.614;13.500;2023-03-24T00:32:35;9.50;99.90
13835;DHT22;6988;52.614;13.500;2023-03-24T00:37:28;9.50;99.90
13835;DHT22;6988;52.614;13.500;2023-03-24T00:42:21;9.50;99.90
13835;DHT22;6988;52.614;13.500;2023-03-24T00:47:14;9.50;99.90
13835;DHT22;6988;52.614;13.500;2023-03-24T00:52:08;9.50;99.90
13835;DHT22;6988;52.614;13.500;2023-03-24T00:57:01;9.50;99.90
13835;DHT22;6988;52.614;13.500;2023-03-24T01:01:54;9.50;99.90
13835;DHT22;6988;52.614;13.500;2023-03-24T01:06:47;9.70;99.90
13835;DHT22;6988;52.614;13.500;2023-03-24T01:11:41;9.90;99.90
13835;DHT22;6988;52.614;13.500;2023-03-24T01:16:33;10.00;99.90
13835;DHT22;6988;52.614;13.500;2023-03-24T01:21:26;10.00;99.90
13835;DHT22;6988;52.614;13.500;2023-03-24T01:26:21;10.10;99.90
13835;DHT22;6988;52.614;13.500;2023-03-24T01:31:13;10.10;99.90
13835;DHT22;6988;52.614;13.500;2023-03-24T01:36:06;10.10;99.90
13835;DHT22;6988;52.614;13.500;2023-03-24T01:41:00;10.10;99.90
13835;DHT22;6988;52.614;13.500;2023-03-24T01:46:06;10.00;99.90
13835;DHT22;6988;52.614;13.500;2023-03-24T01:51:07;10.00;99.90
13835;DHT22;6988;52.614;13.500;2023-03-24T01:56:05;10.00;99.90
13835;DHT22;6988;52.614;13.500;2023-03-24T02:01:02;10.00;99.90
13835;DHT22;6988;52.614;13.500;2023-03-24T02:06:20;9.90;99.90
13835;DHT22;6988;52.614;13.500;2023-03-24T02:11:17;9.90;99.90
13835;DHT22;6988;52.614;13.500;2023-03-24T02:28:01;9.90;99.90
13835;DHT22;6988;52.614;13.500;2023-03-24T02:44:19;9.90;99.90
13835;DHT22;6988;52.614;13.500;2023-03-24T02:49:21;9.90;99.90
13835;DHT22;6988;52.614;13.500;2023-03-24T02:54:26;9.90;99.90
13835;DHT22;6988;52.614;13.500;2023-03-24T02:59:29;10.00;99.90
13835;DHT22;6988;52.614;13.500;2023-03-24T03:04:30;10.10;99.90
13835;DHT22;6988;52.614;13.500;2023-03-24T03:09:28;10.20;99.90
13835;DHT22;6988;52.614;13.500;2023-03-24T03:14:25;10.30;99.90
13835;DHT22;6988;52.614;13.500;2023-03-24T03:19:27;10.40;99.90
13835;DHT22;6988;52.614;13.500;2023-03-24T03:24:25;10.60;99.90
13835;DHT22;6988;52.614;13.500;2023-03-24T03:29:25;10.60;99.90
13835;DHT22;6988;52.614;13.500;2023-03-24T03:34:27;10.60;99.90
13835;DHT22;6988;52.614;13.500;2023-03-24T03:39:28;10.60;99.90
13835;DHT22;6988;52.614;13.500;2023-03-24T03:44:27;10.60;99.90
13835;DHT22;6988;52.614;13.500;2023-03-24T03:49:20;10.60;99.90
13835;DHT22;6988;52.614;13.500;2023-03-24T03:54:15;10.70;99.90
13835;DHT22;6988;52.614;13.500;2023-03-24T03:59:22;10.70;99.90
13835;DHT22;6988;52.614;13.500;2023-03-24T04:04:37;10.70;99.90
13835;DHT22;6988;52.614;13.500;2023-03-24T04:09:57;10.70;99.90
13835;DHT22;6988;52.614;13.500;2023-03-24T04:15:10;10.80;99.90
13835;DHT22;6988;52.614;13.500;2023-03-24T04:21:00;10.80;99.90
13835;DHT22;6988;52.614;13.500;2023-03-24T04:26:11;10.80;99.90
13835;DHT22;6988;52.614;13.500;2023-03-24T04:31:17;10.80;99.90
13835;DHT22;6988;52.614;13.500;2023-03-24T04:36:22;10.80;99.90
13835;DHT22;6988;52.614;13.500;2023-03-24T04:41:48;10.90;99.90
13835;DHT22;6988;52.614;13.500;2023-03-24T04:46:49;10.90;99.90
13835;DHT22;6988;52.614;13.500;2023-03-24T04:51:45;10.90;99.90
13835;DHT22;6988;52.614;13.500;2023-03-24T04:56:48;10.90;99.90
13835;DHT22;6988;52.614;13.500;2023-03-24T05:01:47;10.90;99.90
13835;DHT22;6988;52.614;13.500;2023-03-24T05:07:07;10.90;99.90
13835;DHT22;6988;52.614;13.500;2023-03-24T05:11:59;11.00;99.90
13835;DHT22;6988;52.614;13.500;2023-03-24T05:16:54;11.10;99.90
13835;DHT22;6988;52.614;13.500;2023-03-24T05:21:48;11.00;99.90
13835;DHT22;6988;52.614;13.500;2023-03-24T05:26:41;11.10;99.90
13835;DHT22;6988;52.614;13.500;2023-03-24T05:31:40;11.10;99.90
13835;DHT22;6988;52.614;13.500;2023-03-24T05:36:39;11.20;99.90
13835;DHT22;6988;52.614;13.500;2023-03-24T05:41:31;11.30;99.90
13835;DHT22;6988;52.614;13.500;2023-03-24T05:46:24;11.40;99.90
13835;DHT22;6988;52.614;13.500;2023-03-24T05:51:16;11.50;99.90
13835;DHT22;6988;52.614;13.500;2023-03-24T05:56:10;11.60;99.90
13835;DHT22;6988;52.614;13.500;2023-03-24T06:01:20;11.70;99.90
13835;DHT22;6988;52.614;13.500;2023-03-24T06:06:20;11.70;99.90
13835;DHT22;6988;52.614;13.500;2023-03-24T06:11:13;11.80;99.90
13835;DHT22;6988;52.614;13.500;2023-03-24T06:16:15;11.90;99.90
13835;DHT22;6988;52.614;13.500;2023-03-24T06:21:22;12.00;99.90
13835;DHT22;6988;52.614;13.500;2023-03-24T06:26:20;12.00;99.90
13835;DHT22;6988;52.614;13.500;2023-03-24T06:31:18;12.00;99.90
13835;DHT22;6988;52.614;13.500;2023-03-24T06:36:13;12.10;99.90
13835;DHT22;6988;52.614;13.500;2023-03-24T06:41:08;12.20;99.90
13835;DHT22;6988;52.614;13.500;2023-03-24T06:46:02;12.20;99.90
13835;DHT22;6988;52.614;13.500;2023-03-24T06:50:55;12.30;99.90
13835;DHT22;6988;52.614;13.500;2023-03-24T06:55:47;12.30;99.90
13835;DHT22;6988;52.614;13.500;2023-03-24T07:00:43;12.30;99.90
13835;DHT22;6988;52.614;13.500;2023-03-24T07:05:51;12.40;99.90
13835;DHT22;6988;52.614;13.500;2023-03-24T07:10:43;12.40;99.90
13835;DHT22;6988;52.614;13.500;2023-03-24T07:15:36;12.40;99.90
13835;DHT22;6988;52.614;13.500;2023-03-24T07:20:30;12.50;99.90
13835;DHT22;6988;52.614;13.500;2023-03-24T07:25:31;12.60;99.90
13835;DHT22;6988;52.614;13.500;2023-03-24T07:30:36;12.70;99.90
13835;DHT22;6988;52.614;13.500;2023-03-24T07:35:30;12.80;99.90
13835;DHT22;6988;52.614;13.500;2023-03-24T07:40:22;13.00;99.90
13835;DHT22;6988;52.614;13.500;2023-03-24T07:45:16;13.30;99.90
13835;DHT22;6988;52.614;13.500;2023-03-24T07:50:09;13.60;99.90
13835;DHT22;6988;52.614;13.500;2023-03-24T07:55:03;13.80;99.90
13835;DHT22;6988;52.614;13.500;2023-03-24T08:00:14;13.80;99.90
13835;DHT22;6988;52.614;13.500;2023-03-24T08:05:16;13.80;99.90
13835;DHT22;6988;52.614;13.500;2023-03-24T08:10:18;13.60;99.90
13835;DHT22;6988;52.614;13.500;2023-03-24T08:15:12;13.60;99.90
13835;DHT22;6988;52.614;13.500;2023-03-24T08:20:06;13.50;99.90
13835;DHT22;6988;52.614;13.500;2023-03-24T08:25:04;13.40;99.90
13835;DHT22;6988;52.614;13.500;2023-03-24T08:29:59;13.40;99.90
13835;DHT22;6988;52.614;13.500;2023-03-24T08:34:51;13.30;99.90
13835;DHT22;6988;52.614;13.500;2023-03-24T08:39:43;13.20;99.90
13835;DHT22;6988;52.614;13.500;2023-03-24T08:44:35;13.20;99.90
13835;DHT22;6988;52.614;13.500;2023-03-24T08:49:30;13.20;99.90
13835;DHT22;6988;52.614;13.500;2023-03-24T08:54:22;13.30;99.90
13835;DHT22;6988;52.614;13.500;2023-03-24T08:59:15;13.30;99.90
13835;DHT22;6988;52.614;13.500;2023-03-24T09:04:07;13.30;99.90
13835;DHT22;6988;52.614;13.500;2023-03-24T09:09:03;13.40;99.90
13835;DHT22;6988;52.614;13.500;2023-03-24T09:13:55;13.50;99.90
13835;DHT22;6988;52.614;13.500;2023-03-24T09:18:47;13.50;99.90
13835;DHT22;6988;52.614;13.500;2023-03-24T09:23:39;13.50;99.90
13835;DHT22;6988;52.614;13.500;2023-03-24T09:28:33;13.60;99.90
13835;DHT22;6988;52.614;13.500;2023-03-24T09:33:25;13.60;99.90
13835;DHT22;6988;52.614;13.500;2023-03-24T09:38:19;13.80;99.90
13835;DHT22;6988;52.614;13.500;2023-03-24T09:43:17;13.90;99.90
13835;DHT22;6988;52.614;13.500;2023-03-24T09:48:18;14.00;99.90
13835;DHT22;6988;52.614;13.500;2023-03-24T09:53:25;14.20;99.90
13835;DHT22;6988;52.614;13.500;2023-03-24T09:58:23;14.90;99.90
13835;DHT22;6988;52.614;13.500;2023-03-24T10:03:22;15.00;99.90
13835;DHT22;6988;52.614;13.500;2023-03-24T10:08:17;15.20;99.90
13835;DHT22;6988;52.614;13.500;2023-03-24T10:13:20;15.20;99.90
13835;DHT22;6988;52.614;13.500;2023-03-24T10:18:29;15.30;99.90
13835;DHT22;6988;52.614;13.500;2023-03-24T10:23:30;15.20;99.90
13835;DHT22;6988;52.614;13.500;2023-03-24T10:28:32;15.10;99.90
13835;DHT22;6988;52.614;13.500;2023-03-24T10:33:30;15.20;99.90
13835;DHT22;6988;52.614;13.500;2023-03-24T10:38:22;15.40;99.90
13835;DHT22;6988;52.614;13.500;2023-03-24T10:43:16;15.60;99.90
13835;DHT22;6988;52.614;13.500;2023-03-24T10:48:11;15.70;99.90
13835;DHT22;6988;52.614;13.500;2023-03-24T10:53:10;16.10;99.90
13835;DHT22;6988;52.614;13.500;2023-03-24T10:58:16;16.40;99.90
13835;DHT22;6988;52.614;13.500;2023-03-24T11:03:14;16.20;99.90
13835;DHT22;6988;52.614;13.500;2023-03-24T11:08:22;16.00;99.90
13835;DHT22;6988;52.614;13.500;2023-03-24T11:13:19;15.80;99.90
13835;DHT22;6988;52.614;13.500;2023-03-24T11:18:18;15.80;99.90
13835;DHT22;6988;52.614;13.500;2023-03-24T11:23:20;15.70;99.90
13835;DHT22;6988;52.614;13.500;2023-03-24T11:28:20;15.80;99.90
13835;DHT22;6988;52.614;13.500;2023-03-24T11:33:19;16.00;99.90
13835;DHT22;6988;52.614;13.500;2023-03-24T11:38:16;16.30;99.90
13835;DHT22;6988;52.614;13.500;2023-03-24T11:43:18;16.70;99.90
13835;DHT22;6988;52.614;13.500;2023-03-24T11:48:20;16.70;99.90
13835;DHT22;6988;52.614;13.500;2023-03-24T11:53:18;16.80;99.90
13835;DHT22;6988;52.614;13.500;2023-03-24T11:58:23;16.80;99.90
13835;DHT22;6988;52.614;13.500;2023-03-24T12:08:54;16.80;99.90
13835;DHT22;6988;52.614;13.500;2023-03-24T12:13:59;16.80;99.90
13835;DHT22;6988;52.614;13.500;2023-03-24T12:19:07;16.90;99.90
13835;DHT22;6988;52.614;13.500;2023-03-24T12:24:21;17.00;99.90
13835;DHT22;6988;52.614;13.500;2023-03-24T12:35:04;16.90;99.90
13835;DHT22;6988;52.614;13.500;2023-03-24T12:40:29;16.70;99.90
13835;DHT22;6988;52.614;13.500;2023-03-24T12:45:41;16.40;99.90
13835;DHT22;6988;52.614;13.500;2023-03-24T12:50:46;16.30;99.90
13835;DHT22;6988;52.614;13.500;2023-03-24T12:55:51;16.30;99.90
13835;DHT22;6988;52.614;13.500;2023-03-24T13:00:58;16.20;99.90
13835;DHT22;6988;52.614;13.500;2023-03-24T13:05:58;16.10;99.90
13835;DHT22;6988;52.614;13.500;2023-03-24T13:11:05;16.00;99.90
13835;DHT22;6988;52.614;13.500;2023-03-24T13:16:04;15.90;99.90
13835;DHT22;6988;52.614;13.500;2023-03-24T13:21:02;15.80;99.90
13835;DHT22;6988;52.614;13.500;2023-03-24T13:26:03;15.70;99.90
13835;DHT22;6988;52.614;13.500;2023-03-24T13:31:03;15.60;99.90
13835;DHT22;6988;52.614;13.500;2023-03-24T13:36:08;15.40;99.90
13835;DHT22;6988;52.614;13.500;2023-03-24T13:41:18;15.40;99.90
13835;DHT22;6988;52.614;13.500;2023-03-24T13:46:15;15.30;99.90
13835;DHT22;6988;52.614;13.500;2023-03-24T13:51:15;15.20;99.90
13835;DHT22;6988;52.614;13.500;2023-03-24T13:56:10;15.40;99.90
13835;DHT22;6988;52.614;13.500;2023-03-24T14:01:30;15.30;99.90
13835;DHT22;6988;52.614;13.500;2023-03-24T14:06:44;15.20;99.90
13835;DHT22;6988;52.614;13.500;2023-03-24T14:11:47;15.20;99.90
13835;DHT22;6988;52.614;13.500;2023-03-24T14:16:48;15.10;99.90
13835;DHT22;6988;52.614;13.500;2023-03-24T14:22:02;15.00;99.90
13835;DHT22;6988;52.614;13.500;2023-03-24T14:27:00;15.00;99.90
13835;DHT22;6988;52.614;13.500;2023-03-24T14:32:00;15.00;99.90
13835;DHT22;6988;52.614;13.500;2023-03-24T14:36:57;14.90;99.90
13835;DHT22;6988;52.614;13.500;2023-03-24T14:41:53;14.90;99.90
13835;DHT22;6988;52.614;13.500;2023-03-24T14:46:46;14.90;99.90
13835;DHT22;6988;52.614;13.500;2023-03-24T14:51:44;15.00;99.90
13835;DHT22;6988;52.614;13.500;2023-03-24T14:56:42;15.20;99.90
13835;DHT22;6988;52.614;13.500;2023-03-24T15:01:41;15.20;99.90
13835;DHT22;6988;52.614;13.500;2023-03-24T15:06:47;15.20;99.90
13835;DHT22;6988;52.614;13.500;2023-03-24T15:11:40;15.60;99.90
13835;DHT22;6988;52.614;13.500;2023-03-24T15:16:35;15.60;99.90
13835;DHT22;6988;52.614;13.500;2023-03-24T15:21:32;15.50;99.90
13835;DHT22;6988;52.614;13.500;2023-03-24T15:26:28;15.40;99.90
13835;DHT22;6988;52.614;13.500;2023-03-24T15:31:23;15.40;99.90
13835;DHT22;6988;52.614;13.500;2023-03-24T15:36:21;15.30;99.90
13835;DHT22;6988;52.614;13.500;2023-03-24T15:41:15;15.30;99.90
13835;DHT22;6988;52.614;13.500;2023-03-24T15:46:20;15.40;99.90
13835;DHT22;6988;52.614;13.500;2023-03-24T15:51:15;15.60;99.90
13835;DHT22;6988;52.614;13.500;2023-03-24T15:56:15;15.50;99.90
13835;DHT22;6988;52.614;13.500;2023-03-24T16:01:09;15.50;99.90
13835;DHT22;6988;52.614;13.500;2023-03-24T16:06:12;15.30;99.90
13835;DHT22;6988;52.614;13.500;2023-03-24T16:11:06;15.10;99.90
13835;DHT22;6988;52.614;13.500;2023-03-24T16:16:07;15.00;99.90
13835;DHT22;6988;52.614;13.500;2023-03-24T16:21:15;14.90;99.90
13835;DHT22;6988;52.614;13.500;2023-03-24T16:26:11;14.70;99.90
13835;DHT22;6988;52.614;13.500;2023-03-24T16:31:04;14.60;99.90
13835;DHT22;6988;52.614;13.500;2023-03-24T16:35:57;14.60;99.90
13835;DHT22;6988;52.614;13.500;2023-03-24T16:40:52;14.70;99.90
13835;DHT22;6988;52.614;13.500;2023-03-24T16:45:45;14.50;99.90
13835;DHT22;6988;52.614;13.500;2023-03-24T16:50:40;14.40;99.90
13835;DHT22;6988;52.614;13.500;2023-03-24T16:55:35;14.20;99.90
13835;DHT22;6988;52.614;13.500;2023-03-24T17:00:29;14.10;99.90
13835;DHT22;6988;52.614;13.500;2023-03-24T17:05:23;14.10;99.90
13835;DHT22;6988;52.614;13.500;2023-03-24T17:10:17;13.90;99.90
13835;DHT22;6988;52.614;13.500;2023-03-24T17:15:19;13.80;99.90
13835;DHT22;6988;52.614;13.500;2023-03-24T17:20:14;13.70;99.90
13835;DHT22;6988;52.614;13.500;2023-03-24T17:25:08;13.70;99.90
13835;DHT22;6988;52.614;13.500;2023-03-24T17:30:00;13.60;99.90
13835;DHT22;6988;52.614;13.500;2023-03-24T17:34:52;13.40;99.90
13835;DHT22;6988;52.614;13.500;2023-03-24T17:39:45;13.40;99.90
13835;DHT22;6988;52.614;13.500;2023-03-24T17:44:37;13.20;99.90
13835;DHT22;6988;52.614;13.500;2023-03-24T17:49:30;13.10;99.90
13835;DHT22;6988;52.614;13.500;2023-03-24T17:54:22;13.00;99.90
13835;DHT22;6988;52.614;13.500;2023-03-24T17:59:16;12.80;99.90
13835;DHT22;6988;52.614;13.500;2023-03-24T18:04:08;12.70;99.90
13835;DHT22;6988;52.614;13.500;2023-03-24T18:09:00;12.70;99.90
13835;DHT22;6988;52.614;13.500;2023-03-24T18:13:52;12.60;99.90
13835;DHT22;6988;52.614;13.500;2023-03-24T18:18:45;12.50;99.90
13835;DHT22;6988;52.614;13.500;2023-03-24T18:23:37;12.50;99.90
13835;DHT22;6988;52.614;13.500;2023-03-24T18:28:30;12.40;99.90
13835;DHT22;6988;52.614;13.500;2023-03-24T18:33:22;12.30;99.90
13835;DHT22;6988;52.614;13.500;2023-03-24T18:38:16;12.30;99.90
13835;DHT22;6988;52.614;13.500;2023-03-24T18:43:12;12.10;99.90
13835;DHT22;6988;52.614;13.500;2023-03-24T18:48:04;12.00;99.90
13835;DHT22;6988;52.614;13.500;2023-03-24T18:52:57;11.90;99.90
13835;DHT22;6988;52.614;13.500;2023-03-24T18:57:50;11.80;99.90
13835;DHT22;6988;52.614;13.500;2023-03-24T19:02:42;11.70;99.90
13835;DHT22;6988;52.614;13.500;2023-03-24T19:07:33;11.60;99.90
13835;DHT22;6988;52.614;13.500;2023-03-24T19:12:27;11.50;99.90
13835;DHT22;6988;52.614;13.500;2023-03-24T19:17:20;11.40;99.90
13835;DHT22;6988;52.614;13.500;2023-03-24T19:22:13;11.30;99.90
13835;DHT22;6988;52.614;13.500;2023-03-24T19:27:10;11.30;99.90
13835;DHT22;6988;52.614;13.500;2023-03-24T19:32:02;11.30;99.90
13835;DHT22;6988;52.614;13.500;2023-03-24T19:36:56;11.40;99.90
13835;DHT22;6988;52.614;13.500;2023-03-24T19:41:48;11.60;99.90
13835;DHT22;6988;52.614;13.500;2023-03-24T19:46:40;11.60;99.90
13835;DHT22;6988;52.614;13.500;2023-03-24T19:51:32;11.50;99.90
13835;DHT22;6988;52.614;13.500;2023-03-24T19:56:25;11.40;99.90
13835;DHT22;6988;52.614;13.500;2023-03-24T20:01:17;11.20;99.90
13835;DHT22;6988;52.614;13.500;2023-03-24T20:06:10;11.10;99.90
13835;DHT22;6988;52.614;13.500;2023-03-24T20:11:05;11.00;99.90
13835;DHT22;6988;52.614;13.500;2023-03-24T20:15:59;11.00;99.90
13835;DHT22;6988;52.614;13.500;2023-03-24T20:20:53;10.90;99.90
13835;DHT22;6988;52.614;13.500;2023-03-24T20:25:45;10.80;99.90
13835;DHT22;6988;52.614;13.500;2023-03-24T20:30:38;10.80;99.90
13835;DHT22;6988;52.614;13.500;2023-03-24T20:35:33;10.90;99.90
13835;DHT22;6988;52.614;13.500;2023-03-24T20:40:25;10.80;99.90
13835;DHT22;6988;52.614;13.500;2023-03-24T20:45:17;10.80;99.90
13835;DHT22;6988;52.614;13.500;2023-03-24T20:50:10;10.70;99.90
13835;DHT22;6988;52.614;13.500;2023-03-24T20:55:04;10.60;99.90
13835;DHT22;6988;52.614;13.500;2023-03-24T20:59:58;10.50;99.90
13835;DHT22;6988;52.614;13.500;2023-03-24T21:04:50;10.30;99.90
13835;DHT22;6988;52.614;13.500;2023-03-24T21:09:41;10.30;99.90
13835;DHT22;6988;52.614;13.500;2023-03-24T21:14:35;10.30;99.90
13835;DHT22;6988;52.614;13.500;2023-03-24T21:19:27;10.20;99.90
13835;DHT22;6988;52.614;13.500;2023-03-24T21:24:19;10.10;99.90
13835;DHT22;6988;52.614;13.500;2023-03-24T21:29:11;10.10;99.90
13835;DHT22;6988;52.614;13.500;2023-03-24T21:34:05;10.00;99.90
13835;DHT22;6988;52.614;13.500;2023-03-24T21:38:57;9.90;99.90
13835;DHT22;6988;52.614;13.500;2023-03-24T21:43:49;9.90;99.90
13835;DHT22;6988;52.614;13.500;2023-03-24T21:48:43;10.00;99.90
13835;DHT22;6988;52.614;13.500;2023-03-24T21:53:41;10.00;99.90
13835;DHT22;6988;52.614;13.500;2023-03-24T21:58:33;10.00;99.90
13835;DHT22;6988;52.614;13.500;2023-03-24T22:03:27;10.00;99.90
13835;DHT22;6988;52.614;13.500;2023-03-24T22:08:19;10.00;99.90
13835;DHT22;6988;52.614;13.500;2023-03-24T22:13:17;10.00;99.90
13835;DHT22;6988;52.614;13.500;2023-03-24T22:18:09;10.00;99.90
13835;DHT22;6988;52.614;13.500;2023-03-24T22:23:00;9.90;99.90
13835;DHT22;6988;52.614;13.500;2023-03-24T22:27:52;9.70;99.90
13835;DHT22;6988;52.614;13.500;2023-03-24T22:32:47;9.80;99.90
13835;DHT22;6988;52.614;13.500;2023-03-24T22:37:39;9.70;99.90
13835;DHT22;6988;52.614;13.500;2023-03-24T22:42:31;9.60;99.90
13835;DHT22;6988;52.614;13.500;2023-03-24T23:04:50;9.30;99.90
13835;DHT22;6988;52.614;13.500;2023-03-24T23:09:42;9.20;99.90
13835;DHT22;6988;52.614;13.500;2023-03-24T23:14:34;9.20;99.90
13835;DHT22;6988;52.614;13.500;2023-03-24T23:19:27;9.10;99.90
13835;DHT22;6988;52.614;13.500;2023-03-24T23:24:23;9.10;99.90
13835;DHT22;6988;52.614;13.500;2023-03-24T23:29:16;9.10;99.90
13835;DHT22;6988;52.614;13.500;2023-03-24T23:34:09;9.10;99.90
13835;DHT22;6988;52.614;13.500;2023-03-24T23:39:02;9.10;99.90
13835;DHT22;6988;52.614;13.500;2023-03-24T23:43:55;9.10;99.90
13835;DHT22;6988;52.614;13.500;2023-03-24T23:48:47;9.20;99.90
13835;DHT22;6988;52.614;13.500;2023-03-24T23:53:39;9.10;99.90
13835;DHT22;6988;52.614;13.500;2023-03-24T23:58:32;9.10;99.90
